AZU2476 SBKP-SBPS
Flight info
| Callsign | AZU2476 |
|---|---|
| Flight time | 1h 38m |
| Altitude | 37000 |
| Route | KONVI UZ23 KIBAP DCT NITLU UZ16 OSUNO |
| Aircraft | A320/M-SDE3FGHIRWY/LB1 |
Departure
| Time | 2026-05-07 00:04 |
|---|---|
| Airport | Viracopos International Airport (SBKP) |
Arrival
| Time | 2026-05-07 01:43 |
|---|---|
| Airport | Porto Seguro International Airport (SBPS) |
| Time | Latitude | Longitude | Altitude | Speed | Heading |
|---|---|---|---|---|---|
| 2026-05-06 23:31 | -23.00693 | -47.14996 | 261 ft | 0 kts | 217° |
| 2026-05-06 23:56 | -23.00691 | -47.14994 | 260 ft | 2 kts | 216° |
| 2026-05-06 23:56 | -23.00675 | -47.14981 | 1681 ft | 3 kts | 218° |
| 2026-05-06 23:56 | -23.00660 | -47.14967 | 2164 ft | 3 kts | 233° |
| 2026-05-06 23:56 | -23.00652 | -47.14952 | 1704 ft | 3 kts | 291° |
| 2026-05-06 23:57 | -23.00654 | -47.14946 | 2167 ft | 0 kts | 307° |
| 2026-05-06 23:59 | -23.00653 | -47.14948 | 1990 ft | 2 kts | 307° |
| 2026-05-06 23:59 | -23.00636 | -47.14972 | 2160 ft | 6 kts | 307° |
| 2026-05-06 23:59 | -23.00607 | -47.15014 | 2167 ft | 6 kts | 307° |
| 2026-05-07 00:00 | -23.00583 | -47.15048 | 2166 ft | 5 kts | 307° |
| 2026-05-07 00:00 | -23.00566 | -47.15073 | 2167 ft | 3 kts | 307° |
| 2026-05-07 00:00 | -23.00555 | -47.15089 | 2163 ft | 2 kts | 307° |
| 2026-05-07 00:00 | -23.00550 | -47.15097 | 2164 ft | 1 kts | 307° |
| 2026-05-07 00:01 | -23.00525 | -47.15133 | 2159 ft | 10 kts | 307° |
| 2026-05-07 00:01 | -23.00487 | -47.15188 | 2161 ft | 8 kts | 306° |
| 2026-05-07 00:01 | -23.00447 | -47.15217 | 2167 ft | 9 kts | 358° |
| 2026-05-07 00:01 | -23.00362 | -47.15157 | 2167 ft | 17 kts | 38° |
| 2026-05-07 00:02 | -23.00265 | -47.15076 | 2162 ft | 18 kts | 37° |
| 2026-05-07 00:02 | -23.00168 | -47.14996 | 2168 ft | 18 kts | 37° |
| 2026-05-07 00:02 | -23.00078 | -47.14921 | 2166 ft | 14 kts | 37° |
| 2026-05-07 00:02 | -23.00014 | -47.14854 | 2164 ft | 11 kts | 59° |
| 2026-05-07 00:03 | -22.99960 | -47.14797 | 2160 ft | 10 kts | 36° |
| 2026-05-07 00:03 | -22.99913 | -47.14753 | 2159 ft | 8 kts | 49° |
| 2026-05-07 00:03 | -22.99886 | -47.14689 | 2163 ft | 12 kts | 83° |
| 2026-05-07 00:03 | -22.99958 | -47.14538 | 2163 ft | 51 kts | 127° |
| 2026-05-07 00:04 | -23.00321 | -47.14031 | 2166 ft | 116 kts | 128° |
| 2026-05-07 00:04 | -23.00919 | -47.13195 | 2162 ft | 166 kts | 127° |
| 2026-05-07 00:04 | -23.01608 | -47.12097 | 2586 ft | 178 kts | 108° |
| 2026-05-07 00:04 | -23.01688 | -47.10708 | 2994 ft | 195 kts | 85° |
| 2026-05-07 00:05 | -23.01517 | -47.09236 | 3591 ft | 196 kts | 82° |
| 2026-05-07 00:05 | -23.01301 | -47.07751 | 4189 ft | 203 kts | 82° |
| 2026-05-07 00:05 | -23.01090 | -47.06167 | 4628 ft | 221 kts | 83° |
| 2026-05-07 00:05 | -23.00880 | -47.04432 | 4957 ft | 244 kts | 82° |
| 2026-05-07 00:06 | -23.00525 | -47.02552 | 5377 ft | 263 kts | 67° |
| 2026-05-07 00:06 | -22.99436 | -47.00969 | 6064 ft | 272 kts | 40° |
| 2026-05-07 00:06 | -22.97925 | -46.99714 | 6883 ft | 276 kts | 38° |
| 2026-05-07 00:06 | -22.96378 | -46.98459 | 7645 ft | 280 kts | 38° |
| 2026-05-07 00:07 | -22.94806 | -46.97184 | 8399 ft | 284 kts | 38° |
| 2026-05-07 00:07 | -22.93216 | -46.95894 | 9143 ft | 287 kts | 38° |
| 2026-05-07 00:07 | -22.91604 | -46.94581 | 9867 ft | 292 kts | 38° |
| 2026-05-07 00:07 | -22.89972 | -46.93241 | 10462 ft | 302 kts | 39° |
| 2026-05-07 00:08 | -22.88283 | -46.91749 | 10643 ft | 324 kts | 41° |
| 2026-05-07 00:08 | -22.86513 | -46.90102 | 10800 ft | 346 kts | 42° |
| 2026-05-07 00:08 | -22.84691 | -46.88372 | 11203 ft | 357 kts | 42° |
| 2026-05-07 00:08 | -22.82809 | -46.86585 | 11795 ft | 362 kts | 42° |
| 2026-05-07 00:09 | -22.80897 | -46.84786 | 12408 ft | 366 kts | 42° |
| 2026-05-07 00:09 | -22.78952 | -46.82976 | 12973 ft | 371 kts | 42° |
| 2026-05-07 00:09 | -22.76991 | -46.81137 | 13537 ft | 375 kts | 43° |
| 2026-05-07 00:09 | -22.75083 | -46.79196 | 14117 ft | 378 kts | 46° |
| 2026-05-07 00:10 | -22.73212 | -46.77162 | 14658 ft | 383 kts | 47° |
| 2026-05-07 00:10 | -22.71359 | -46.75077 | 15198 ft | 386 kts | 47° |
| 2026-05-07 00:10 | -22.69513 | -46.72988 | 15709 ft | 391 kts | 47° |
| 2026-05-07 00:10 | -22.67628 | -46.70854 | 16223 ft | 394 kts | 49° |
| 2026-05-07 00:11 | -22.66112 | -46.68386 | 16686 ft | 396 kts | 67° |
| 2026-05-07 00:11 | -22.65293 | -46.65533 | 17157 ft | 398 kts | 81° |
| 2026-05-07 00:11 | -22.65017 | -46.62545 | 17596 ft | 401 kts | 91° |
| 2026-05-07 00:11 | -22.65181 | -46.59524 | 18046 ft | 404 kts | 96° |
| 2026-05-07 00:12 | -22.65423 | -46.56488 | 18499 ft | 407 kts | 96° |
| 2026-05-07 00:12 | -22.65654 | -46.53420 | 18954 ft | 410 kts | 96° |
| 2026-05-07 00:12 | -22.65883 | -46.50376 | 19401 ft | 413 kts | 96° |
| 2026-05-07 00:12 | -22.66120 | -46.47264 | 19796 ft | 416 kts | 96° |
| 2026-05-07 00:13 | -22.66365 | -46.44129 | 20179 ft | 420 kts | 96° |
| 2026-05-07 00:13 | -22.66615 | -46.40975 | 20560 ft | 423 kts | 96° |
| 2026-05-07 00:13 | -22.66869 | -46.37793 | 20943 ft | 425 kts | 96° |
| 2026-05-07 00:13 | -22.67126 | -46.34592 | 21308 ft | 428 kts | 96° |
| 2026-05-07 00:14 | -22.67383 | -46.31372 | 21652 ft | 431 kts | 96° |
| 2026-05-07 00:14 | -22.67639 | -46.28129 | 21998 ft | 433 kts | 96° |
| 2026-05-07 00:14 | -22.67851 | -46.24865 | 22331 ft | 437 kts | 91° |
| 2026-05-07 00:14 | -22.67577 | -46.21624 | 22670 ft | 441 kts | 79° |
| 2026-05-07 00:15 | -22.66677 | -46.18446 | 23035 ft | 445 kts | 68° |
| 2026-05-07 00:15 | -22.65182 | -46.15505 | 23372 ft | 449 kts | 56° |
| 2026-05-07 00:15 | -22.63145 | -46.12936 | 23670 ft | 452 kts | 43° |
| 2026-05-07 00:15 | -22.60728 | -46.10741 | 23983 ft | 455 kts | 39° |
| 2026-05-07 00:16 | -22.58267 | -46.08574 | 24313 ft | 457 kts | 39° |
| 2026-05-07 00:16 | -22.55798 | -46.06398 | 24652 ft | 459 kts | 39° |
| 2026-05-07 00:16 | -22.53317 | -46.04210 | 24936 ft | 462 kts | 39° |
| 2026-05-07 00:16 | -22.50817 | -46.02004 | 25223 ft | 465 kts | 39° |
| 2026-05-07 00:17 | -22.48341 | -45.99820 | 25496 ft | 467 kts | 39° |
| 2026-05-07 00:17 | -22.45814 | -45.97594 | 25768 ft | 470 kts | 39° |
| 2026-05-07 00:17 | -22.43271 | -45.95357 | 26028 ft | 473 kts | 39° |
| 2026-05-07 00:17 | -22.40709 | -45.93107 | 26298 ft | 476 kts | 39° |
| 2026-05-07 00:18 | -22.38134 | -45.90845 | 26568 ft | 478 kts | 39° |
| 2026-05-07 00:18 | -22.35549 | -45.88570 | 26817 ft | 481 kts | 39° |
| 2026-05-07 00:18 | -22.32947 | -45.86278 | 27065 ft | 484 kts | 40° |
| 2026-05-07 00:18 | -22.30334 | -45.83978 | 27320 ft | 486 kts | 40° |
| 2026-05-07 00:19 | -22.27701 | -45.81665 | 27555 ft | 489 kts | 39° |
| 2026-05-07 00:19 | -22.25090 | -45.79386 | 27774 ft | 491 kts | 39° |
| 2026-05-07 00:19 | -22.22420 | -45.77070 | 28012 ft | 493 kts | 39° |
| 2026-05-07 00:19 | -22.19732 | -45.74753 | 28203 ft | 496 kts | 39° |
| 2026-05-07 00:20 | -22.17024 | -45.72426 | 28389 ft | 499 kts | 39° |
| 2026-05-07 00:20 | -22.14308 | -45.70094 | 28611 ft | 501 kts | 39° |
| 2026-05-07 00:20 | -22.11577 | -45.67747 | 28819 ft | 503 kts | 39° |
| 2026-05-07 00:20 | -22.08843 | -45.65388 | 29024 ft | 505 kts | 39° |
| 2026-05-07 00:21 | -22.06100 | -45.63017 | 29245 ft | 506 kts | 39° |
| 2026-05-07 00:21 | -22.03350 | -45.60638 | 29449 ft | 508 kts | 39° |
| 2026-05-07 00:21 | -22.00624 | -45.58286 | 29640 ft | 510 kts | 39° |
| 2026-05-07 00:21 | -21.97851 | -45.55899 | 29904 ft | 510 kts | 39° |
| 2026-05-07 00:22 | -21.95077 | -45.53514 | 30151 ft | 511 kts | 39° |
| 2026-05-07 00:22 | -21.92294 | -45.51127 | 30407 ft | 511 kts | 39° |
| 2026-05-07 00:22 | -21.89519 | -45.48746 | 30686 ft | 511 kts | 39° |
| 2026-05-07 00:22 | -21.86744 | -45.46362 | 30959 ft | 510 kts | 39° |
| 2026-05-07 00:23 | -21.83964 | -45.43974 | 31196 ft | 511 kts | 39° |
| 2026-05-07 00:23 | -21.81183 | -45.41586 | 31448 ft | 511 kts | 39° |
| 2026-05-07 00:23 | -21.78438 | -45.39232 | 31685 ft | 512 kts | 39° |
| 2026-05-07 00:23 | -21.75654 | -45.36845 | 31927 ft | 512 kts | 39° |
| 2026-05-07 00:24 | -21.72866 | -45.34455 | 32165 ft | 513 kts | 39° |
| 2026-05-07 00:24 | -21.70074 | -45.32063 | 32408 ft | 513 kts | 39° |
| 2026-05-07 00:24 | -21.67284 | -45.29670 | 32652 ft | 514 kts | 39° |
| 2026-05-07 00:24 | -21.64487 | -45.27272 | 32900 ft | 514 kts | 39° |
| 2026-05-07 00:25 | -21.61690 | -45.24882 | 33119 ft | 514 kts | 39° |
| 2026-05-07 00:25 | -21.58887 | -45.22493 | 33350 ft | 515 kts | 39° |
| 2026-05-07 00:25 | -21.56079 | -45.20102 | 33565 ft | 516 kts | 39° |
| 2026-05-07 00:25 | -21.53266 | -45.17707 | 33793 ft | 516 kts | 39° |
| 2026-05-07 00:26 | -21.50493 | -45.15337 | 33998 ft | 517 kts | 39° |
| 2026-05-07 00:26 | -21.47679 | -45.12932 | 34228 ft | 517 kts | 39° |
| 2026-05-07 00:26 | -21.44856 | -45.10524 | 34423 ft | 518 kts | 39° |
| 2026-05-07 00:26 | -21.42036 | -45.08120 | 34642 ft | 518 kts | 39° |
| 2026-05-07 00:27 | -21.39214 | -45.05712 | 34856 ft | 518 kts | 39° |
| 2026-05-07 00:27 | -21.36387 | -45.03303 | 35032 ft | 519 kts | 39° |
| 2026-05-07 00:27 | -21.33551 | -45.00896 | 35195 ft | 520 kts | 39° |
| 2026-05-07 00:27 | -21.30715 | -44.98487 | 35337 ft | 521 kts | 39° |
| 2026-05-07 00:28 | -21.27874 | -44.96068 | 35515 ft | 522 kts | 39° |
| 2026-05-07 00:28 | -21.25065 | -44.93680 | 35681 ft | 522 kts | 39° |
| 2026-05-07 00:28 | -21.22215 | -44.91262 | 35847 ft | 523 kts | 39° |
| 2026-05-07 00:28 | -21.19363 | -44.88846 | 36037 ft | 523 kts | 39° |
| 2026-05-07 00:29 | -21.16514 | -44.86430 | 36188 ft | 523 kts | 39° |
| 2026-05-07 00:29 | -21.13656 | -44.84005 | 36348 ft | 524 kts | 39° |
| 2026-05-07 00:30 | -21.05102 | -44.76761 | 36751 ft | 526 kts | 38° |
| 2026-05-07 00:30 | -21.02193 | -44.74388 | 36875 ft | 527 kts | 37° |
| 2026-05-07 00:30 | -20.99224 | -44.72081 | 37001 ft | 527 kts | 36° |
| 2026-05-07 00:30 | -20.96224 | -44.69826 | 37150 ft | 527 kts | 35° |
| 2026-05-07 00:31 | -20.90178 | -44.65345 | 37249 ft | 531 kts | 36° |
| 2026-05-07 00:31 | -20.84131 | -44.60793 | 37247 ft | 532 kts | 36° |
| 2026-05-07 00:32 | -20.78777 | -44.55487 | 37247 ft | 528 kts | 54° |
| 2026-05-07 00:32 | -20.74823 | -44.48937 | 37245 ft | 524 kts | 63° |
| 2026-05-07 00:33 | -20.71082 | -44.42258 | 37250 ft | 524 kts | 63° |
| 2026-05-07 00:33 | -20.67327 | -44.35590 | 37254 ft | 524 kts | 63° |
| 2026-05-07 00:34 | -20.63570 | -44.28909 | 37250 ft | 524 kts | 63° |
| 2026-05-07 00:34 | -20.59846 | -44.22282 | 37251 ft | 524 kts | 63° |
| 2026-05-07 00:35 | -20.56099 | -44.15598 | 37258 ft | 525 kts | 63° |
| 2026-05-07 00:35 | -20.52343 | -44.08917 | 37262 ft | 525 kts | 63° |
| 2026-05-07 00:36 | -20.48630 | -44.02210 | 37264 ft | 524 kts | 64° |
| 2026-05-07 00:36 | -20.45156 | -43.95441 | 37267 ft | 523 kts | 66° |
| 2026-05-07 00:37 | -20.41723 | -43.88599 | 37258 ft | 524 kts | 65° |
| 2026-05-07 00:37 | -20.38231 | -43.81774 | 37260 ft | 525 kts | 65° |
| 2026-05-07 00:38 | -20.34688 | -43.74980 | 37267 ft | 525 kts | 65° |
| 2026-05-07 00:38 | -20.31162 | -43.68236 | 37270 ft | 524 kts | 65° |
| 2026-05-07 00:39 | -20.27628 | -43.61447 | 37267 ft | 524 kts | 65° |
| 2026-05-07 00:39 | -20.24102 | -43.54660 | 37263 ft | 524 kts | 65° |
| 2026-05-07 00:40 | -20.20578 | -43.47881 | 37260 ft | 524 kts | 65° |
| 2026-05-07 00:40 | -20.17066 | -43.41145 | 37264 ft | 524 kts | 64° |
| 2026-05-07 00:41 | -20.13544 | -43.34417 | 37235 ft | 514 kts | 64° |
| 2026-05-07 00:41 | -20.10104 | -43.27810 | 37247 ft | 508 kts | 65° |
| 2026-05-07 00:42 | -20.06867 | -43.21140 | 37247 ft | 507 kts | 66° |
| 2026-05-07 00:42 | -20.03735 | -43.14424 | 37247 ft | 507 kts | 67° |
| 2026-05-07 00:43 | -20.00588 | -43.07774 | 37247 ft | 507 kts | 66° |
| 2026-05-07 00:43 | -19.97358 | -43.01102 | 37250 ft | 508 kts | 66° |
| 2026-05-07 00:44 | -19.93371 | -42.94880 | 37251 ft | 513 kts | 51° |
| 2026-05-07 00:44 | -19.88719 | -42.89140 | 37251 ft | 513 kts | 51° |
| 2026-05-07 00:45 | -19.84090 | -42.83434 | 37253 ft | 513 kts | 51° |
| 2026-05-07 00:45 | -19.79435 | -42.77687 | 37253 ft | 513 kts | 51° |
| 2026-05-07 00:46 | -19.74774 | -42.71944 | 37255 ft | 513 kts | 51° |
| 2026-05-07 00:46 | -19.70110 | -42.66209 | 37260 ft | 513 kts | 51° |
| 2026-05-07 00:47 | -19.65483 | -42.60524 | 37266 ft | 512 kts | 51° |
| 2026-05-07 00:47 | -19.60825 | -42.54811 | 37268 ft | 512 kts | 51° |
| 2026-05-07 00:48 | -19.56162 | -42.49112 | 37269 ft | 511 kts | 51° |
| 2026-05-07 00:48 | -19.51503 | -42.43416 | 37267 ft | 511 kts | 51° |
| 2026-05-07 00:49 | -19.46860 | -42.37712 | 37267 ft | 511 kts | 51° |
| 2026-05-07 00:49 | -19.42254 | -42.32050 | 37265 ft | 511 kts | 51° |
| 2026-05-07 00:50 | -19.37606 | -42.26360 | 37258 ft | 511 kts | 51° |
| 2026-05-07 00:50 | -19.32945 | -42.20687 | 37258 ft | 510 kts | 50° |
| 2026-05-07 00:51 | -19.28320 | -42.15053 | 37208 ft | 504 kts | 50° |
| 2026-05-07 00:51 | -19.23769 | -42.09489 | 37209 ft | 503 kts | 50° |
| 2026-05-07 00:52 | -19.19183 | -42.03904 | 37209 ft | 502 kts | 50° |
| 2026-05-07 00:52 | -19.14601 | -41.98333 | 37208 ft | 502 kts | 50° |
| 2026-05-07 00:53 | -19.10013 | -41.92765 | 37207 ft | 502 kts | 50° |
| 2026-05-07 00:53 | -19.05416 | -41.87201 | 37206 ft | 502 kts | 50° |
| 2026-05-07 00:54 | -19.00858 | -41.81677 | 37205 ft | 502 kts | 50° |
| 2026-05-07 00:54 | -18.96287 | -41.76113 | 37204 ft | 501 kts | 50° |
| 2026-05-07 00:55 | -18.91702 | -41.70562 | 37206 ft | 501 kts | 50° |
| 2026-05-07 00:55 | -18.87110 | -41.65015 | 37206 ft | 502 kts | 50° |
| 2026-05-07 00:56 | -18.82552 | -41.59507 | 37205 ft | 502 kts | 50° |
| 2026-05-07 00:56 | -18.77967 | -41.53954 | 37204 ft | 502 kts | 50° |
| 2026-05-07 00:57 | -18.73369 | -41.48404 | 37201 ft | 502 kts | 50° |
| 2026-05-07 00:57 | -18.68761 | -41.42866 | 37198 ft | 502 kts | 50° |
| 2026-05-07 00:58 | -18.64161 | -41.37329 | 37203 ft | 502 kts | 50° |
| 2026-05-07 00:58 | -18.59586 | -41.31830 | 37204 ft | 502 kts | 50° |
| 2026-05-07 00:59 | -18.52693 | -41.23524 | 37199 ft | 502 kts | 50° |
| 2026-05-07 01:00 | -18.48093 | -41.17989 | 37195 ft | 502 kts | 50° |
| 2026-05-07 01:00 | -18.43473 | -41.12463 | 37193 ft | 503 kts | 50° |
| 2026-05-07 01:01 | -18.38883 | -41.06968 | 37200 ft | 503 kts | 49° |
| 2026-05-07 01:01 | -18.34272 | -41.01440 | 37209 ft | 502 kts | 49° |
| 2026-05-07 01:02 | -18.29658 | -40.95926 | 37217 ft | 501 kts | 49° |
| 2026-05-07 01:02 | -18.25057 | -40.90425 | 37217 ft | 500 kts | 49° |
| 2026-05-07 01:03 | -18.20491 | -40.84972 | 37215 ft | 500 kts | 49° |
| 2026-05-07 01:03 | -18.15930 | -40.79513 | 37184 ft | 489 kts | 49° |
| 2026-05-07 01:04 | -18.11469 | -40.74194 | 37194 ft | 483 kts | 49° |
| 2026-05-07 01:04 | -18.07019 | -40.68907 | 37193 ft | 482 kts | 49° |
| 2026-05-07 01:05 | -18.02612 | -40.63653 | 37191 ft | 482 kts | 49° |
| 2026-05-07 01:05 | -17.98170 | -40.58371 | 37193 ft | 482 kts | 49° |
| 2026-05-07 01:06 | -17.93722 | -40.53088 | 37198 ft | 483 kts | 49° |
| 2026-05-07 01:06 | -17.89275 | -40.47805 | 37198 ft | 483 kts | 49° |
| 2026-05-07 01:07 | -17.84861 | -40.42563 | 37202 ft | 483 kts | 49° |
| 2026-05-07 01:07 | -17.80411 | -40.37284 | 37081 ft | 483 kts | 49° |
| 2026-05-07 01:07 | -17.78186 | -40.34650 | 36834 ft | 482 kts | 49° |
| 2026-05-07 01:08 | -17.75960 | -40.32018 | 36582 ft | 482 kts | 49° |
| 2026-05-07 01:08 | -17.73738 | -40.29392 | 36333 ft | 481 kts | 49° |
| 2026-05-07 01:08 | -17.71515 | -40.26766 | 36084 ft | 481 kts | 49° |
| 2026-05-07 01:08 | -17.69330 | -40.24180 | 35837 ft | 479 kts | 49° |
| 2026-05-07 01:09 | -17.67122 | -40.21571 | 35587 ft | 478 kts | 49° |
| 2026-05-07 01:09 | -17.64925 | -40.18977 | 35309 ft | 474 kts | 49° |
| 2026-05-07 01:09 | -17.62739 | -40.16397 | 34773 ft | 472 kts | 49° |
| 2026-05-07 01:09 | -17.60564 | -40.13831 | 34244 ft | 470 kts | 49° |
| 2026-05-07 01:10 | -17.58397 | -40.11278 | 33716 ft | 467 kts | 49° |
| 2026-05-07 01:10 | -17.56241 | -40.08743 | 33194 ft | 465 kts | 49° |
| 2026-05-07 01:10 | -17.54092 | -40.06219 | 32677 ft | 462 kts | 49° |
| 2026-05-07 01:10 | -17.51962 | -40.03708 | 32163 ft | 460 kts | 49° |
| 2026-05-07 01:11 | -17.49871 | -40.01244 | 31634 ft | 457 kts | 48° |
| 2026-05-07 01:11 | -17.47766 | -39.98764 | 31136 ft | 454 kts | 48° |
| 2026-05-07 01:11 | -17.45673 | -39.96301 | 30648 ft | 450 kts | 48° |
| 2026-05-07 01:11 | -17.43599 | -39.93860 | 30171 ft | 447 kts | 48° |
| 2026-05-07 01:12 | -17.41533 | -39.91447 | 29698 ft | 443 kts | 47° |
| 2026-05-07 01:12 | -17.39469 | -39.89075 | 29240 ft | 439 kts | 47° |
| 2026-05-07 01:12 | -17.37412 | -39.86737 | 28783 ft | 435 kts | 47° |
| 2026-05-07 01:12 | -17.35369 | -39.84424 | 28345 ft | 430 kts | 47° |
| 2026-05-07 01:13 | -17.33347 | -39.82132 | 27919 ft | 426 kts | 47° |
| 2026-05-07 01:13 | -17.31349 | -39.79861 | 27442 ft | 422 kts | 47° |
| 2026-05-07 01:13 | -17.29400 | -39.77639 | 27013 ft | 418 kts | 47° |
| 2026-05-07 01:13 | -17.27442 | -39.75401 | 26553 ft | 415 kts | 47° |
| 2026-05-07 01:14 | -17.25506 | -39.73183 | 26097 ft | 411 kts | 47° |
| 2026-05-07 01:14 | -17.23584 | -39.70981 | 25622 ft | 408 kts | 47° |
| 2026-05-07 01:14 | -17.21672 | -39.68800 | 25157 ft | 405 kts | 47° |
| 2026-05-07 01:14 | -17.19773 | -39.66635 | 24679 ft | 403 kts | 47° |
| 2026-05-07 01:15 | -17.17881 | -39.64484 | 24197 ft | 400 kts | 47° |
| 2026-05-07 01:15 | -17.16003 | -39.62345 | 23722 ft | 398 kts | 47° |
| 2026-05-07 01:15 | -17.14161 | -39.60246 | 23237 ft | 396 kts | 47° |
| 2026-05-07 01:15 | -17.12304 | -39.58135 | 22773 ft | 394 kts | 48° |
| 2026-05-07 01:16 | -17.10454 | -39.56032 | 22306 ft | 391 kts | 48° |
| 2026-05-07 01:16 | -17.08619 | -39.53945 | 21841 ft | 389 kts | 48° |
| 2026-05-07 01:16 | -17.06794 | -39.51866 | 21390 ft | 387 kts | 48° |
| 2026-05-07 01:16 | -17.04982 | -39.49801 | 20978 ft | 383 kts | 48° |
| 2026-05-07 01:17 | -17.03186 | -39.47757 | 20537 ft | 380 kts | 48° |
| 2026-05-07 01:17 | -17.01402 | -39.45730 | 20108 ft | 377 kts | 48° |
| 2026-05-07 01:17 | -16.99637 | -39.43729 | 19694 ft | 374 kts | 48° |
| 2026-05-07 01:17 | -16.97906 | -39.41766 | 19361 ft | 369 kts | 48° |
| 2026-05-07 01:18 | -16.96170 | -39.39793 | 18904 ft | 368 kts | 48° |
| 2026-05-07 01:18 | -16.94453 | -39.37845 | 18561 ft | 363 kts | 48° |
| 2026-05-07 01:18 | -16.92747 | -39.35913 | 18119 ft | 361 kts | 48° |
| 2026-05-07 01:18 | -16.91054 | -39.33994 | 17718 ft | 358 kts | 48° |
| 2026-05-07 01:19 | -16.89378 | -39.32088 | 17324 ft | 355 kts | 48° |
| 2026-05-07 01:19 | -16.87735 | -39.30219 | 17187 ft | 344 kts | 48° |
| 2026-05-07 01:19 | -16.86160 | -39.28431 | 17055 ft | 334 kts | 48° |
| 2026-05-07 01:19 | -16.84600 | -39.26659 | 16807 ft | 329 kts | 48° |
| 2026-05-07 01:20 | -16.83056 | -39.24909 | 16484 ft | 327 kts | 48° |
| 2026-05-07 01:20 | -16.81521 | -39.23173 | 16154 ft | 325 kts | 48° |
| 2026-05-07 01:20 | -16.79993 | -39.21446 | 15822 ft | 323 kts | 48° |
| 2026-05-07 01:20 | -16.78472 | -39.19733 | 15503 ft | 321 kts | 48° |
| 2026-05-07 01:21 | -16.76950 | -39.18018 | 15023 ft | 324 kts | 49° |
| 2026-05-07 01:21 | -16.75409 | -39.16275 | 14473 ft | 329 kts | 49° |
| 2026-05-07 01:21 | -16.73870 | -39.14533 | 13934 ft | 333 kts | 49° |
| 2026-05-07 01:21 | -16.72294 | -39.12748 | 13379 ft | 336 kts | 49° |
| 2026-05-07 01:22 | -16.70708 | -39.10950 | 12831 ft | 338 kts | 50° |
| 2026-05-07 01:22 | -16.69112 | -39.09139 | 12274 ft | 339 kts | 49° |
| 2026-05-07 01:22 | -16.67512 | -39.07328 | 11710 ft | 340 kts | 50° |
| 2026-05-07 01:22 | -16.65928 | -39.05540 | 11161 ft | 329 kts | 50° |
| 2026-05-07 01:23 | -16.64401 | -39.03819 | 10609 ft | 318 kts | 50° |
| 2026-05-07 01:23 | -16.62922 | -39.02151 | 10069 ft | 308 kts | 50° |
| 2026-05-07 01:23 | -16.61506 | -39.00555 | 9513 ft | 299 kts | 50° |
| 2026-05-07 01:23 | -16.60110 | -38.98984 | 8970 ft | 292 kts | 50° |
| 2026-05-07 01:24 | -16.58751 | -38.97449 | 8417 ft | 284 kts | 50° |
| 2026-05-07 01:24 | -16.57424 | -38.95955 | 7865 ft | 278 kts | 51° |
| 2026-05-07 01:24 | -16.56124 | -38.94490 | 7314 ft | 272 kts | 51° |
| 2026-05-07 01:24 | -16.54850 | -38.93053 | 6761 ft | 267 kts | 51° |
| 2026-05-07 01:25 | -16.53600 | -38.91643 | 6208 ft | 262 kts | 51° |
| 2026-05-07 01:25 | -16.52373 | -38.90259 | 5659 ft | 258 kts | 51° |
| 2026-05-07 01:25 | -16.51164 | -38.88894 | 5109 ft | 254 kts | 51° |
| 2026-05-07 01:25 | -16.49973 | -38.87551 | 4557 ft | 251 kts | 51° |
| 2026-05-07 01:26 | -16.48784 | -38.86276 | 4093 ft | 246 kts | 42° |
| 2026-05-07 01:26 | -16.47246 | -38.85569 | 3779 ft | 242 kts | 8° |
| 2026-05-07 01:26 | -16.45601 | -38.85813 | 3606 ft | 244 kts | 335° |
| 2026-05-07 01:26 | -16.44247 | -38.86864 | 3432 ft | 244 kts | 317° |
| 2026-05-07 01:27 | -16.42935 | -38.87951 | 3257 ft | 238 kts | 324° |
| 2026-05-07 01:27 | -16.41590 | -38.88920 | 3085 ft | 233 kts | 326° |
| 2026-05-07 01:27 | -16.40306 | -38.89909 | 2904 ft | 227 kts | 311° |
| 2026-05-07 01:27 | -16.39598 | -38.91321 | 2726 ft | 218 kts | 275° |
| 2026-05-07 01:28 | -16.39718 | -38.92815 | 2554 ft | 208 kts | 250° |
| 2026-05-07 01:28 | -16.40115 | -38.94250 | 2397 ft | 203 kts | 250° |
| 2026-05-07 01:28 | -16.40494 | -38.95626 | 2234 ft | 193 kts | 253° |
| 2026-05-07 01:28 | -16.40846 | -38.96928 | 2132 ft | 180 kts | 254° |
| 2026-05-07 01:29 | -16.41170 | -38.98161 | 1962 ft | 173 kts | 253° |
| 2026-05-07 01:29 | -16.41488 | -38.99336 | 1752 ft | 164 kts | 254° |
| 2026-05-07 01:29 | -16.41786 | -39.00445 | 1560 ft | 153 kts | 254° |
| 2026-05-07 01:29 | -16.42066 | -39.01493 | 1346 ft | 148 kts | 254° |
| 2026-05-07 01:30 | -16.42348 | -39.02512 | 1144 ft | 145 kts | 254° |
| 2026-05-07 01:30 | -16.42618 | -39.03508 | 948 ft | 144 kts | 255° |
| 2026-05-07 01:30 | -16.42890 | -39.04511 | 750 ft | 144 kts | 254° |
| 2026-05-07 01:30 | -16.43159 | -39.05509 | 556 ft | 143 kts | 255° |
| 2026-05-07 01:31 | -16.43423 | -39.06502 | 362 ft | 142 kts | 254° |
| 2026-05-07 01:31 | -16.43695 | -39.07491 | 183 ft | 141 kts | 254° |
| 2026-05-07 01:31 | -16.43940 | -39.08408 | 193 ft | 133 kts | 255° |
| 2026-05-07 01:31 | -16.44204 | -39.09438 | 687 ft | 154 kts | 255° |
| 2026-05-07 01:32 | -16.44509 | -39.10559 | 1190 ft | 171 kts | 254° |
| 2026-05-07 01:32 | -16.44857 | -39.11805 | 1514 ft | 192 kts | 254° |
| 2026-05-07 01:32 | -16.45447 | -39.13102 | 1893 ft | 199 kts | 232° |
| 2026-05-07 01:32 | -16.46476 | -39.13995 | 2313 ft | 199 kts | 199° |
| 2026-05-07 01:33 | -16.47885 | -39.13958 | 2700 ft | 216 kts | 159° |
| 2026-05-07 01:33 | -16.49091 | -39.12991 | 3095 ft | 226 kts | 120° |
| 2026-05-07 01:33 | -16.49532 | -39.11447 | 3499 ft | 223 kts | 85° |
| 2026-05-07 01:33 | -16.49417 | -39.09843 | 3894 ft | 222 kts | 82° |
| 2026-05-07 01:34 | -16.49325 | -39.08778 | 3977 ft | 222 kts | 82° |
| 2026-05-07 01:34 | -16.49140 | -39.06681 | 4009 ft | 217 kts | 83° |
| 2026-05-07 01:34 | -16.49004 | -39.05122 | 4005 ft | 215 kts | 84° |
| 2026-05-07 01:34 | -16.48872 | -39.03571 | 4012 ft | 215 kts | 86° |
| 2026-05-07 01:35 | -16.48742 | -39.02021 | 4009 ft | 216 kts | 87° |
| 2026-05-07 01:35 | -16.48613 | -39.00458 | 4013 ft | 217 kts | 88° |
| 2026-05-07 01:35 | -16.48482 | -38.98882 | 4013 ft | 219 kts | 88° |
| 2026-05-07 01:35 | -16.48349 | -38.97298 | 4013 ft | 220 kts | 88° |
| 2026-05-07 01:36 | -16.48261 | -38.96248 | 4014 ft | 220 kts | 88° |
| 2026-05-07 01:36 | -16.48126 | -38.94659 | 4009 ft | 220 kts | 88° |
| 2026-05-07 01:36 | -16.47946 | -38.92554 | 4013 ft | 220 kts | 88° |
| 2026-05-07 01:36 | -16.47813 | -38.90965 | 4000 ft | 220 kts | 88° |
| 2026-05-07 01:37 | -16.47678 | -38.89385 | 4014 ft | 215 kts | 88° |
| 2026-05-07 01:37 | -16.47448 | -38.87893 | 3917 ft | 208 kts | 71° |
| 2026-05-07 01:37 | -16.46914 | -38.87059 | 3775 ft | 213 kts | 46° |
| 2026-05-07 01:37 | -16.45567 | -38.86419 | 3536 ft | 220 kts | 5° |
| 2026-05-07 01:38 | -16.44105 | -38.86825 | 3290 ft | 222 kts | 327° |
| 2026-05-07 01:38 | -16.42432 | -38.88055 | 2951 ft | 222 kts | 324° |
| 2026-05-07 01:38 | -16.41177 | -38.88998 | 2715 ft | 222 kts | 323° |
| 2026-05-07 01:38 | -16.40098 | -38.90129 | 2464 ft | 220 kts | 298° |
| 2026-05-07 01:39 | -16.39704 | -38.91113 | 2302 ft | 217 kts | 279° |
| 2026-05-07 01:39 | -16.39684 | -38.92636 | 2053 ft | 214 kts | 256° |
| 2026-05-07 01:39 | -16.40086 | -38.94121 | 1796 ft | 213 kts | 253° |
| 2026-05-07 01:39 | -16.40483 | -38.95592 | 1638 ft | 207 kts | 254° |
| 2026-05-07 01:40 | -16.40856 | -38.97009 | 1615 ft | 197 kts | 253° |
| 2026-05-07 01:40 | -16.41320 | -38.98696 | 1599 ft | 169 kts | 255° |
| 2026-05-07 01:40 | -16.41624 | -38.99831 | 1567 ft | 159 kts | 255° |
| 2026-05-07 01:40 | -16.41824 | -39.00569 | 1477 ft | 156 kts | 254° |
| 2026-05-07 01:41 | -16.42110 | -39.01609 | 1314 ft | 148 kts | 255° |
| 2026-05-07 01:41 | -16.42382 | -39.02628 | 1113 ft | 145 kts | 254° |
| 2026-05-07 01:41 | -16.42654 | -39.03635 | 922 ft | 144 kts | 255° |
| 2026-05-07 01:41 | -16.42920 | -39.04633 | 728 ft | 143 kts | 255° |
| 2026-05-07 01:42 | -16.43186 | -39.05627 | 530 ft | 142 kts | 254° |
| 2026-05-07 01:42 | -16.43458 | -39.06615 | 326 ft | 142 kts | 254° |
| 2026-05-07 01:42 | -16.43724 | -39.07599 | 174 ft | 138 kts | 254° |
| 2026-05-07 01:42 | -16.43936 | -39.08397 | 158 ft | 67 kts | 255° |
| 2026-05-07 01:43 | -16.44025 | -39.08737 | 159 ft | 19 kts | 263° |
| 2026-05-07 01:43 | -16.44030 | -39.08809 | 160 ft | 6 kts | 195° |
| 2026-05-07 01:43 | -16.44043 | -39.08786 | 160 ft | 4 kts | 84° |
| 2026-05-07 01:43 | -16.44035 | -39.08760 | 159 ft | 4 kts | 72° |
| 2026-05-07 01:44 | -16.44024 | -39.08729 | 159 ft | 7 kts | 70° |
| 2026-05-07 01:44 | -16.44000 | -39.08642 | 159 ft | 15 kts | 75° |
| 2026-05-07 01:44 | -16.43973 | -39.08539 | 159 ft | 15 kts | 74° |
| 2026-05-07 01:44 | -16.43948 | -39.08444 | 158 ft | 13 kts | 75° |
| 2026-05-07 01:45 | -16.43926 | -39.08362 | 158 ft | 11 kts | 75° |
| 2026-05-07 01:45 | -16.43959 | -39.08314 | 159 ft | 8 kts | 160° |
| 2026-05-07 01:45 | -16.44002 | -39.08300 | 160 ft | 6 kts | 164° |
| 2026-05-07 01:45 | -16.44034 | -39.08291 | 160 ft | 4 kts | 164° |
| 2026-05-07 01:46 | -16.44055 | -39.08268 | 160 ft | 6 kts | 106° |
| 2026-05-07 01:46 | -16.44066 | -39.08246 | 160 ft | 2 kts | 144° |
| 2026-05-07 01:46 | -16.44078 | -39.08241 | 160 ft | 1 kts | 158° |
| 2026-05-07 01:46 | -16.44085 | -39.08238 | 160 ft | 1 kts | 160° |
| 2026-05-07 01:47 | -16.44089 | -39.08237 | 160 ft | 0 kts | 160° |
| 2026-05-07 01:47 | -16.44090 | -39.08237 | 160 ft | 0 kts | 160° |
| 2026-05-07 01:47 | -16.44093 | -39.08236 | 160 ft | 1 kts | 161° |
| 2026-05-07 01:47 | -16.44096 | -39.08235 | 160 ft | 0 kts | 162° |